First Coast — WCR9075 — position and weather

sailwx.info

Track history (hours):
 
Tides and Currents Weather Stations Pressure Air Temp Water Temp Dewpoint Dewpoint Depression Visibility Wind Speed Wind Dir Waves Ship Positions

First Coast

Owner: DANN MARINE TOWING L C, CHESAPEAKE CITY, MD. More information available from US FCC via Universal Licensing System and Coast Guard Vessel Documentation Center.

Last reported at 2016-Feb-09 17:32 UTC. Time now 2016-Feb-09 18:00 UTC.
Position N 39°54' W 075°09'.

; draft 4 m.

Type: Tug. MMSI: 367024280.

Date/timePositionNaut miles runAvg speedWind from/ knotsBaromVisibWave heightAir tempDewpointWater temp
2016-Feb-09 17:32N 39°54' W 075°09'0 0.0
2016-Feb-09 16:33N 39°54' W 075°09'0 0.0
2016-Feb-09 15:33N 39°54' W 075°09'0 0.0
2016-Feb-09 14:32N 39°54' W 075°09'0 0.0
2016-Feb-09 13:33N 39°54' W 075°09'0 0.0
2016-Feb-09 12:33N 39°54' W 075°09'0 0.0
2016-Feb-09 11:33N 39°54' W 075°09'0 0.0
2016-Feb-09 10:34N 39°54' W 075°09'0 0.0
2016-Feb-09 09:33N 39°54' W 075°09'0 0.0
2016-Feb-09 08:33N 39°54' W 075°09'0 0.0
2016-Feb-09 07:33N 39°54' W 075°09'0 0.0
2016-Feb-09 06:33N 39°54' W 075°09'0 0.0
2016-Feb-09 05:34N 39°54' W 075°09'0 0.0
2016-Feb-09 04:33N 39°54' W 075°09'0 0.0
2016-Feb-09 03:33N 39°54' W 075°09'0 0.0
2016-Feb-09 02:33N 39°54' W 075°09'0 0.0
2016-Feb-09 01:34N 39°54' W 075°09'0 0.0
2016-Feb-09 00:33N 39°54' W 075°09'0 0.0
2016-Feb-08 23:34N 39°54' W 075°09'0 0.0
2016-Feb-08 22:33N 39°54' W 075°09'0 0.0
2016-Feb-08 21:33N 39°54' W 075°09'0 0.0
2016-Feb-08 20:33N 39°54' W 075°09'0 0.0
2016-Feb-08 19:34N 39°54' W 075°09'0 0.0
2016-Feb-08 18:34N 39°54' W 075°09'0 0.0
2016-Feb-08 17:33N 39°54' W 075°09'0 0.0
2016-Feb-08 16:33N 39°54' W 075°09'0 0.0
2016-Feb-08 15:33N 39°54' W 075°09'0 0.0
2016-Feb-08 14:32N 39°54' W 075°09'1 0.6
2016-Feb-08 13:33N 39°53' W 075°08'11 9.8
2016-Feb-08 12:28N 39°50' W 075°22'13 3.2
2016-Feb-08 08:22N 39°40' W 075°32'4 4.6
2016-Feb-08 07:34N 39°36' W 075°34'4 3.5
2016-Feb-08 06:34N 39°33' W 075°37'5 5.4
2016-Feb-08 05:34N 39°33' W 075°44'5 4.9
2016-Feb-08 04:33N 39°32' W 075°50'  
2016-Feb-05 21:32N 39°32' W 075°50'7 6.8
2016-Feb-05 20:34N 39°33' W 075°42'7 7.1
2016-Feb-05 19:34N 39°34' W 075°33'9 9.2
2016-Feb-05 18:33N 39°43' W 075°30'6 6.1
2016-Feb-05 17:33N 39°48' W 075°25'0 0.0
2016-Feb-05 16:33N 39°48' W 075°25'0 0.0
2016-Feb-05 15:33N 39°48' W 075°25'0 0.0
2016-Feb-05 14:33N 39°48' W 075°25'0 0.0
2016-Feb-05 13:33N 39°48' W 075°25'0 0.0
2016-Feb-05 12:31N 39°48' W 075°25'0 0.0
2016-Feb-05 11:33N 39°48' W 075°25'0 0.0
2016-Feb-05 08:04N 39°48' W 075°25'0 0.0
2016-Feb-05 07:30N 39°48' W 075°25'0 0.0
2016-Feb-05 06:27N 39°48' W 075°25'0 0.0
2016-Feb-05 05:30N 39°48' W 075°25'0 0.0
2016-Feb-05 04:32N 39°48' W 075°25'0 0.0
2016-Feb-05 03:33N 39°48' W 075°25'0 0.0
2016-Feb-05 02:34N 39°48' W 075°25'0 0.0
2016-Feb-05 01:33N 39°48' W 075°25'0 0.0
2016-Feb-05 00:33N 39°48' W 075°25'0 0.0
2016-Feb-04 23:31N 39°48' W 075°25'2 2.3
2016-Feb-04 22:33N 39°47' W 075°27'10 9.7
2016-Feb-04 21:34N 39°38' W 075°34'6 6.5
2016-Feb-04 20:34N 39°33' W 075°39'8 8.5
2016-Feb-04 19:33N 39°32' W 075°50'0 0.0
2016-Feb-04 18:33N 39°32' W 075°50'0 0.0
2016-Feb-04 17:33N 39°32' W 075°50'0 0.0
2016-Feb-04 16:33N 39°32' W 075°50'0 0.0
2016-Feb-04 15:33N 39°32' W 075°50'0 0.0
2016-Feb-04 14:33N 39°32' W 075°50'0 0.0
2016-Feb-04 13:33N 39°32' W 075°50'0 0.0
2016-Feb-04 12:34N 39°32' W 075°50'0 0.0
2016-Feb-04 11:33N 39°32' W 075°50'0 0.0
2016-Feb-04 10:33N 39°32' W 075°50'0 0.0
2016-Feb-04 09:34N 39°32' W 075°50'0 0.0
2016-Feb-04 08:34N 39°32' W 075°50'0 0.0
2016-Feb-04 07:34N 39°32' W 075°50'0 0.0
2016-Feb-04 06:34N 39°32' W 075°50'0 0.0
2016-Feb-04 05:33N 39°32' W 075°50'0 0.0
2016-Feb-04 04:33N 39°32' W 075°50'0 0.0
2016-Feb-04 03:34N 39°32' W 075°50'0 0.0
2016-Feb-04 02:34N 39°32' W 075°50'0 0.0
2016-Feb-04 01:33N 39°32' W 075°50'0 0.0
2016-Feb-04 00:33N 39°32' W 075°50'0 0.0
2016-Feb-03 23:33N 39°32' W 075°50'0 0.0
2016-Feb-03 22:30N 39°32' W 075°50'0 0.0
2016-Feb-03 21:33N 39°32' W 075°50'0 0.0
2016-Feb-03 20:33N 39°32' W 075°50'0 0.0
2016-Feb-03 19:34N 39°32' W 075°50'0 0.0
2016-Feb-03 18:34N 39°32' W 075°50'0 0.0
2016-Feb-03 17:34N 39°32' W 075°50'0 0.0
2016-Feb-03 16:33N 39°32' W 075°50'0 0.0
2016-Feb-03 15:33N 39°32' W 075°50'0 0.0
2016-Feb-03 14:33N 39°32' W 075°49'0 0.0
2016-Feb-03 13:30N 39°32' W 075°50'0 0.0
2016-Feb-03 12:33N 39°32' W 075°50'0 0.0
2016-Feb-03 11:33N 39°32' W 075°50'0 0.0
2016-Feb-03 10:33N 39°32' W 075°50'0 0.0
2016-Feb-03 09:33N 39°32' W 075°50'0 0.0
2016-Feb-03 08:33N 39°32' W 075°50'0 0.0
2016-Feb-03 07:33N 39°32' W 075°50'0 0.0
2016-Feb-03 06:33N 39°32' W 075°50'0 0.0
2016-Feb-03 05:33N 39°32' W 075°50'0 0.0
2016-Feb-03 04:33N 39°32' W 075°50'0 0.0
2016-Feb-03 03:33N 39°32' W 075°50'0 0.0
2016-Feb-03 02:33N 39°32' W 075°50'0 0.0
2016-Feb-03 01:33N 39°32' W 075°50'0 0.0
2016-Feb-03 00:33N 39°32' W 075°50'0 0.0
2016-Feb-02 23:33N 39°32' W 075°49'0 0.0
2016-Feb-02 22:33N 39°32' W 075°50'0 0.0
2016-Feb-02 21:33N 39°32' W 075°50'0 0.0
2016-Feb-02 20:33N 39°32' W 075°50'0 0.0
2016-Feb-02 19:18N 39°32' W 075°50'0 0.0
2016-Feb-02 18:31N 39°32' W 075°50'0 0.0
2016-Feb-02 17:33N 39°32' W 075°50'0 0.0
2016-Feb-02 16:33N 39°32' W 075°50'0 0.0
2016-Feb-02 15:33N 39°32' W 075°50'0 0.0
2016-Feb-02 14:18N 39°32' W 075°50'0 0.0
2016-Feb-02 13:33N 39°32' W 075°50'0 0.0
2016-Feb-02 12:34N 39°32' W 075°50'0 0.0
2016-Feb-02 11:34N 39°32' W 075°50'0 0.0
2016-Feb-02 10:34N 39°32' W 075°50'0 0.0
2016-Feb-02 09:33N 39°32' W 075°50'0 0.0
2016-Feb-02 08:34N 39°32' W 075°50'0 0.0
2016-Feb-02 07:34N 39°32' W 075°50'0 0.0
2016-Feb-02 06:34N 39°32' W 075°50'0 0.0
2016-Feb-02 05:34N 39°32' W 075°50'0 0.0
2016-Feb-02 04:33N 39°32' W 075°50'0 0.0
2016-Feb-02 03:33N 39°32' W 075°50'0 0.0
2016-Feb-02 02:34N 39°32' W 075°50'0 0.0
2016-Feb-02 01:34N 39°32' W 075°50'0 0.0
2016-Feb-02 00:34N 39°32' W 075°50'0 0.0
2016-Feb-01 23:34N 39°32' W 075°50'0 0.0
2016-Feb-01 22:34N 39°32' W 075°50'0 0.0
2016-Feb-01 21:33N 39°32' W 075°50'0 0.0
2016-Feb-01 20:33N 39°32' W 075°50'0 0.0
2016-Feb-01 19:34N 39°32' W 075°50'0 0.0
2016-Feb-01 18:31N 39°32' W 075°50'0 0.0
2016-Feb-01 17:33N 39°32' W 075°50'0 0.0
2016-Feb-01 16:34N 39°32' W 075°50'0 0.0
2016-Feb-01 15:34N 39°32' W 075°50'0 0.0
2016-Feb-01 14:34N 39°32' W 075°50'0 0.0
2016-Feb-01 13:34N 39°32' W 075°50'0 0.0
2016-Feb-01 12:33N 39°32' W 075°50'0 0.0
2016-Feb-01 11:34N 39°32' W 075°50'0 0.0
2016-Feb-01 10:34N 39°32' W 075°50'0 0.0
2016-Feb-01 09:33N 39°32' W 075°50'0 0.0
2016-Feb-01 08:34N 39°32' W 075°50'0 0.0
2016-Feb-01 07:34N 39°32' W 075°50'0 0.0
2016-Feb-01 06:33N 39°32' W 075°50'0 0.0
2016-Feb-01 05:34N 39°32' W 075°50'0 0.0
2016-Feb-01 04:33N 39°32' W 075°50'0 0.0
2016-Feb-01 03:33N 39°32' W 075°50'0 0.0
2016-Feb-01 02:33N 39°32' W 075°50'0 0.0
2016-Feb-01 01:33N 39°32' W 075°50'0 0.0
2016-Feb-01 00:33N 39°32' W 075°50'0 0.0
2016-Jan-31 23:33N 39°32' W 075°50'0 0.0
2016-Jan-31 22:33N 39°32' W 075°50'0 0.0
2016-Jan-31 21:33N 39°32' W 075°50'0 0.0
2016-Jan-31 20:33N 39°32' W 075°50'0 0.0
2016-Jan-31 19:33N 39°32' W 075°50'0 0.0
2016-Jan-31 18:33N 39°32' W 075°50'0 0.0
2016-Jan-31 17:33N 39°32' W 075°50'0 0.0
2016-Jan-31 16:33N 39°32' W 075°50'0 0.0
2016-Jan-31 15:33N 39°32' W 075°50'0 0.0
2016-Jan-31 14:33N 39°32' W 075°50'0 0.0
2016-Jan-31 13:33N 39°32' W 075°50'0 0.0
2016-Jan-31 12:33N 39°32' W 075°50'0 0.0
2016-Jan-31 11:33N 39°32' W 075°50'0 0.0
2016-Jan-31 10:33N 39°32' W 075°50'0 0.0
2016-Jan-31 09:33N 39°32' W 075°50'0 0.0
2016-Jan-31 08:33N 39°32' W 075°50'0 0.0
2016-Jan-31 07:33N 39°32' W 075°50'0 0.0
2016-Jan-31 06:17N 39°32' W 075°50'0 0.0
2016-Jan-31 05:33N 39°32' W 075°50'0 0.0
2016-Jan-31 04:33N 39°32' W 075°50'0 0.0
2016-Jan-31 03:33N 39°32' W 075°50'0 0.0
2016-Jan-31 02:33N 39°32' W 075°50'0 0.0
2016-Jan-31 01:33N 39°32' W 075°50'0 0.0
2016-Jan-31 00:33N 39°32' W 075°50'0 0.0
2016-Jan-30 23:33N 39°32' W 075°50'0 0.0
2016-Jan-30 22:33N 39°32' W 075°50'0 0.0
2016-Jan-30 21:33N 39°32' W 075°50'0 0.0
2016-Jan-30 20:33N 39°32' W 075°50'0 0.0
2016-Jan-30 19:33N 39°32' W 075°50'0 0.0
2016-Jan-30 18:33N 39°32' W 075°50'0 0.0
2016-Jan-30 17:33N 39°32' W 075°50'  
Track history (hours):
 
Tides and Currents Weather Stations Pressure Air Temp Water Temp Dewpoint Dewpoint Depression Visibility Wind Speed Wind Dir Waves Ship Positions

First Coast

Owner: DANN MARINE TOWING L C, CHESAPEAKE CITY, MD. More information available from US FCC via Universal Licensing System and Coast Guard Vessel Documentation Center.

Last reported at 2016-Feb-09 17:32 UTC. Time now 2016-Feb-09 18:00 UTC.
Position N 39°54' W 075°09'.

; draft 4 m.

Type: Tug. MMSI: 367024280.

Date/timePositionNaut miles runAvg speedWind from/ knotsBaromVisibWave heightAir tempDewpointWater temp
2016-Feb-09 17:32N 39°54' W 075°09'0 0.0
2016-Feb-09 16:33N 39°54' W 075°09'0 0.0
2016-Feb-09 15:33N 39°54' W 075°09'0 0.0
2016-Feb-09 14:32N 39°54' W 075°09'0 0.0
2016-Feb-09 13:33N 39°54' W 075°09'0 0.0
2016-Feb-09 12:33N 39°54' W 075°09'0 0.0
2016-Feb-09 11:33N 39°54' W 075°09'0 0.0
2016-Feb-09 10:34N 39°54' W 075°09'0 0.0
2016-Feb-09 09:33N 39°54' W 075°09'0 0.0
2016-Feb-09 08:33N 39°54' W 075°09'0 0.0
2016-Feb-09 07:33N 39°54' W 075°09'0 0.0
2016-Feb-09 06:33N 39°54' W 075°09'0 0.0
2016-Feb-09 05:34N 39°54' W 075°09'0 0.0
2016-Feb-09 04:33N 39°54' W 075°09'0 0.0
2016-Feb-09 03:33N 39°54' W 075°09'0 0.0
2016-Feb-09 02:33N 39°54' W 075°09'0 0.0
2016-Feb-09 01:34N 39°54' W 075°09'0 0.0
2016-Feb-09 00:33N 39°54' W 075°09'0 0.0
2016-Feb-08 23:34N 39°54' W 075°09'0 0.0
2016-Feb-08 22:33N 39°54' W 075°09'0 0.0
2016-Feb-08 21:33N 39°54' W 075°09'0 0.0
2016-Feb-08 20:33N 39°54' W 075°09'0 0.0
2016-Feb-08 19:34N 39°54' W 075°09'0 0.0
2016-Feb-08 18:34N 39°54' W 075°09'0 0.0
2016-Feb-08 17:33N 39°54' W 075°09'0 0.0
2016-Feb-08 16:33N 39°54' W 075°09'0 0.0
2016-Feb-08 15:33N 39°54' W 075°09'0 0.0
2016-Feb-08 14:32N 39°54' W 075°09'1 0.6
2016-Feb-08 13:33N 39°53' W 075°08'11 9.8
2016-Feb-08 12:28N 39°50' W 075°22'13 3.2
2016-Feb-08 08:22N 39°40' W 075°32'4 4.6
2016-Feb-08 07:34N 39°36' W 075°34'4 3.5
2016-Feb-08 06:34N 39°33' W 075°37'5 5.4
2016-Feb-08 05:34N 39°33' W 075°44'5 4.9
2016-Feb-08 04:33N 39°32' W 075°50'  
2016-Feb-05 21:32N 39°32' W 075°50'7 6.8
2016-Feb-05 20:34N 39°33' W 075°42'7 7.1
2016-Feb-05 19:34N 39°34' W 075°33'9 9.2
2016-Feb-05 18:33N 39°43' W 075°30'6 6.1
2016-Feb-05 17:33N 39°48' W 075°25'0 0.0
2016-Feb-05 16:33N 39°48' W 075°25'0 0.0
2016-Feb-05 15:33N 39°48' W 075°25'0 0.0
2016-Feb-05 14:33N 39°48' W 075°25'0 0.0
2016-Feb-05 13:33N 39°48' W 075°25'0 0.0
2016-Feb-05 12:31N 39°48' W 075°25'0 0.0
2016-Feb-05 11:33N 39°48' W 075°25'0 0.0
2016-Feb-05 08:04N 39°48' W 075°25'0 0.0
2016-Feb-05 07:30N 39°48' W 075°25'0 0.0
2016-Feb-05 06:27N 39°48' W 075°25'0 0.0
2016-Feb-05 05:30N 39°48' W 075°25'0 0.0
2016-Feb-05 04:32N 39°48' W 075°25'0 0.0
2016-Feb-05 03:33N 39°48' W 075°25'0 0.0
2016-Feb-05 02:34N 39°48' W 075°25'0 0.0
2016-Feb-05 01:33N 39°48' W 075°25'0 0.0
2016-Feb-05 00:33N 39°48' W 075°25'0 0.0
2016-Feb-04 23:31N 39°48' W 075°25'2 2.3
2016-Feb-04 22:33N 39°47' W 075°27'10 9.7
2016-Feb-04 21:34N 39°38' W 075°34'6 6.5
2016-Feb-04 20:34N 39°33' W 075°39'8 8.5
2016-Feb-04 19:33N 39°32' W 075°50'0 0.0
2016-Feb-04 18:33N 39°32' W 075°50'0 0.0
2016-Feb-04 17:33N 39°32' W 075°50'0 0.0
2016-Feb-04 16:33N 39°32' W 075°50'0 0.0
2016-Feb-04 15:33N 39°32' W 075°50'0 0.0
2016-Feb-04 14:33N 39°32' W 075°50'0 0.0
2016-Feb-04 13:33N 39°32' W 075°50'0 0.0
2016-Feb-04 12:34N 39°32' W 075°50'0 0.0
2016-Feb-04 11:33N 39°32' W 075°50'0 0.0
2016-Feb-04 10:33N 39°32' W 075°50'0 0.0
2016-Feb-04 09:34N 39°32' W 075°50'0 0.0
2016-Feb-04 08:34N 39°32' W 075°50'0 0.0
2016-Feb-04 07:34N 39°32' W 075°50'0 0.0
2016-Feb-04 06:34N 39°32' W 075°50'0 0.0
2016-Feb-04 05:33N 39°32' W 075°50'0 0.0
2016-Feb-04 04:33N 39°32' W 075°50'0 0.0
2016-Feb-04 03:34N 39°32' W 075°50'0 0.0
2016-Feb-04 02:34N 39°32' W 075°50'0 0.0
2016-Feb-04 01:33N 39°32' W 075°50'0 0.0
2016-Feb-04 00:33N 39°32' W 075°50'0 0.0
2016-Feb-03 23:33N 39°32' W 075°50'0 0.0
2016-Feb-03 22:30N 39°32' W 075°50'0 0.0
2016-Feb-03 21:33N 39°32' W 075°50'0 0.0
2016-Feb-03 20:33N 39°32' W 075°50'0 0.0
2016-Feb-03 19:34N 39°32' W 075°50'0 0.0
2016-Feb-03 18:34N 39°32' W 075°50'0 0.0
2016-Feb-03 17:34N 39°32' W 075°50'0 0.0
2016-Feb-03 16:33N 39°32' W 075°50'0 0.0
2016-Feb-03 15:33N 39°32' W 075°50'0 0.0
2016-Feb-03 14:33N 39°32' W 075°49'0 0.0
2016-Feb-03 13:30N 39°32' W 075°50'0 0.0
2016-Feb-03 12:33N 39°32' W 075°50'0 0.0
2016-Feb-03 11:33N 39°32' W 075°50'0 0.0
2016-Feb-03 10:33N 39°32' W 075°50'0 0.0
2016-Feb-03 09:33N 39°32' W 075°50'0 0.0
2016-Feb-03 08:33N 39°32' W 075°50'0 0.0
2016-Feb-03 07:33N 39°32' W 075°50'0 0.0
2016-Feb-03 06:33N 39°32' W 075°50'0 0.0
2016-Feb-03 05:33N 39°32' W 075°50'0 0.0
2016-Feb-03 04:33N 39°32' W 075°50'0 0.0
2016-Feb-03 03:33N 39°32' W 075°50'0 0.0
2016-Feb-03 02:33N 39°32' W 075°50'0 0.0
2016-Feb-03 01:33N 39°32' W 075°50'0 0.0
2016-Feb-03 00:33N 39°32' W 075°50'0 0.0
2016-Feb-02 23:33N 39°32' W 075°49'0 0.0
2016-Feb-02 22:33N 39°32' W 075°50'0 0.0
2016-Feb-02 21:33N 39°32' W 075°50'0 0.0
2016-Feb-02 20:33N 39°32' W 075°50'0 0.0
2016-Feb-02 19:18N 39°32' W 075°50'0 0.0
2016-Feb-02 18:31N 39°32' W 075°50'0 0.0
2016-Feb-02 17:33N 39°32' W 075°50'0 0.0
2016-Feb-02 16:33N 39°32' W 075°50'0 0.0
2016-Feb-02 15:33N 39°32' W 075°50'0 0.0
2016-Feb-02 14:18N 39°32' W 075°50'0 0.0
2016-Feb-02 13:33N 39°32' W 075°50'0 0.0
2016-Feb-02 12:34N 39°32' W 075°50'0 0.0
2016-Feb-02 11:34N 39°32' W 075°50'0 0.0
2016-Feb-02 10:34N 39°32' W 075°50'0 0.0
2016-Feb-02 09:33N 39°32' W 075°50'0 0.0
2016-Feb-02 08:34N 39°32' W 075°50'0 0.0
2016-Feb-02 07:34N 39°32' W 075°50'0 0.0
2016-Feb-02 06:34N 39°32' W 075°50'0 0.0
2016-Feb-02 05:34N 39°32' W 075°50'0 0.0
2016-Feb-02 04:33N 39°32' W 075°50'0 0.0
2016-Feb-02 03:33N 39°32' W 075°50'0 0.0
2016-Feb-02 02:34N 39°32' W 075°50'0 0.0
2016-Feb-02 01:34N 39°32' W 075°50'0 0.0
2016-Feb-02 00:34N 39°32' W 075°50'0 0.0
2016-Feb-01 23:34N 39°32' W 075°50'0 0.0
2016-Feb-01 22:34N 39°32' W 075°50'0 0.0
2016-Feb-01 21:33N 39°32' W 075°50'0 0.0
2016-Feb-01 20:33N 39°32' W 075°50'0 0.0
2016-Feb-01 19:34N 39°32' W 075°50'0 0.0
2016-Feb-01 18:31N 39°32' W 075°50'0 0.0
2016-Feb-01 17:33N 39°32' W 075°50'0 0.0
2016-Feb-01 16:34N 39°32' W 075°50'0 0.0
2016-Feb-01 15:34N 39°32' W 075°50'0 0.0
2016-Feb-01 14:34N 39°32' W 075°50'0 0.0
2016-Feb-01 13:34N 39°32' W 075°50'0 0.0
2016-Feb-01 12:33N 39°32' W 075°50'0 0.0
2016-Feb-01 11:34N 39°32' W 075°50'0 0.0
2016-Feb-01 10:34N 39°32' W 075°50'0 0.0
2016-Feb-01 09:33N 39°32' W 075°50'0 0.0
2016-Feb-01 08:34N 39°32' W 075°50'0 0.0
2016-Feb-01 07:34N 39°32' W 075°50'0 0.0
2016-Feb-01 06:33N 39°32' W 075°50'0 0.0
2016-Feb-01 05:34N 39°32' W 075°50'0 0.0
2016-Feb-01 04:33N 39°32' W 075°50'0 0.0
2016-Feb-01 03:33N 39°32' W 075°50'0 0.0
2016-Feb-01 02:33N 39°32' W 075°50'0 0.0
2016-Feb-01 01:33N 39°32' W 075°50'0 0.0
2016-Feb-01 00:33N 39°32' W 075°50'0 0.0
2016-Jan-31 23:33N 39°32' W 075°50'0 0.0
2016-Jan-31 22:33N 39°32' W 075°50'0 0.0
2016-Jan-31 21:33N 39°32' W 075°50'0 0.0
2016-Jan-31 20:33N 39°32' W 075°50'0 0.0
2016-Jan-31 19:33N 39°32' W 075°50'0 0.0
2016-Jan-31 18:33N 39°32' W 075°50'0 0.0
2016-Jan-31 17:33N 39°32' W 075°50'0 0.0
2016-Jan-31 16:33N 39°32' W 075°50'0 0.0
2016-Jan-31 15:33N 39°32' W 075°50'0 0.0
2016-Jan-31 14:33N 39°32' W 075°50'0 0.0
2016-Jan-31 13:33N 39°32' W 075°50'0 0.0
2016-Jan-31 12:33N 39°32' W 075°50'0 0.0
2016-Jan-31 11:33N 39°32' W 075°50'0 0.0
2016-Jan-31 10:33N 39°32' W 075°50'0 0.0
2016-Jan-31 09:33N 39°32' W 075°50'0 0.0
2016-Jan-31 08:33N 39°32' W 075°50'0 0.0
2016-Jan-31 07:33N 39°32' W 075°50'0 0.0
2016-Jan-31 06:17N 39°32' W 075°50'0 0.0
2016-Jan-31 05:33N 39°32' W 075°50'0 0.0
2016-Jan-31 04:33N 39°32' W 075°50'0 0.0
2016-Jan-31 03:33N 39°32' W 075°50'0 0.0
2016-Jan-31 02:33N 39°32' W 075°50'0 0.0
2016-Jan-31 01:33N 39°32' W 075°50'0 0.0
2016-Jan-31 00:33N 39°32' W 075°50'0 0.0
2016-Jan-30 23:33N 39°32' W 075°50'0 0.0
2016-Jan-30 22:33N 39°32' W 075°50'0 0.0
2016-Jan-30 21:33N 39°32' W 075°50'0 0.0
2016-Jan-30 20:33N 39°32' W 075°50'0 0.0
2016-Jan-30 19:33N 39°32' W 075°50'0 0.0
2016-Jan-30 18:33N 39°32' W 075°50'0 0.0
2016-Jan-30 17:33N 39°32' W 075°50'  

Dump ship's entire track history